Time;durP1;ratioP1;P1;durP2;ratioP2;P2;SDS_P1;SDS_P2;PMS_P1;PMS_P2;Temp;Humidity;BMP_temperature;BMP_pressure;BME280_temperature;BME280_humidity;BME280_pressure;Samples;Min_cycle;Max_cycle;Signal;HPM_P1;HPM_P2
2023/02/20 00:01:16;;;;;;;;;;;;;;;4.76;81.54;93645.06;5007971;28;20016;-51
2023/02/20 00:03:42;;;;;;;;;;;;;;;4.74;81.29;93644.06;5007651;28;20306;-48
2023/02/20 00:06:07;;;;;;;;;;;;;;;4.66;80.88;93645.88;5008016;28;19971;-50
2023/02/20 00:08:32;;;;;;;;;;;;;;;4.48;81.61;93647.91;5007784;28;20325;-47
2023/02/20 00:10:58;;;;;;;;;;;;;;;4.40;82.35;93643.47;5007561;28;19924;-48
2023/02/20 00:13:23;;;;;;;;;;;;;;;4.43;82.75;93645.22;5007832;28;19925;-47
2023/02/20 00:15:48;;;;;;;;;;;;;;;4.29;82.86;93655.22;5021694;28;20014;-48
2023/02/20 00:18:13;;;;;;;;;;;;;;;4.20;82.93;93666.41;5027518;28;19992;-49
2023/02/20 00:20:39;;;;;;;;;;;;;;;4.26;82.72;93664.44;5027008;28;20363;-49
2023/02/20 00:23:04;;;;;;;;;;;;;;;4.17;82.82;93661.22;5027377;28;19917;-48
2023/02/20 00:25:29;;;;;;;;;;;;;;;4.14;82.80;93668.44;5027056;28;19924;-49
2023/02/20 00:27:55;;;;;;;;;;;;;;;4.18;82.64;93662.72;5010713;28;19913;-49
2023/02/20 00:30:21;;;;;;;;;;;;;;;4.40;81.88;93654.41;5007160;28;20028;-49
2023/02/20 00:32:47;;;;;;;;;;;;;;;4.43;81.27;93665.09;5012038;28;19923;-49
2023/02/20 00:35:12;;;;;;;;;;;;;;;4.08;81.49;93664.97;5007000;28;19929;-49
2023/02/20 00:37:37;;;;;;;;;;;;;;;4.10;82.72;93659.75;5007472;28;19917;-49
2023/02/20 00:40:03;;;;;;;;;;;;;;;4.19;82.65;93659.47;5014274;28;19921;-49
2023/02/20 00:42:28;;;;;;;;;;;;;;;4.28;81.97;93664.66;5007404;28;19921;-48
2023/02/20 00:44:53;;;;;;;;;;;;;;;3.99;81.90;93659.78;5007306;28;20444;-48
2023/02/20 00:47:19;;;;;;;;;;;;;;;3.80;83.13;93662.31;5007400;28;19924;-48
2023/02/20 00:49:44;;;;;;;;;;;;;;;3.84;83.10;93664.78;5007487;28;19968;-48
2023/02/20 00:52:09;;;;;;;;;;;;;;;3.78;83.49;93653.88;5011029;28;19913;-47
2023/02/20 00:54:34;;;;;;;;;;;;;;;3.60;83.06;93657.13;5011069;28;19917;-49
2023/02/20 00:57:00;;;;;;;;;;;;;;;3.42;85.08;93656.91;5010879;28;19947;-49
2023/02/20 00:59:25;;;;;;;;;;;;;;;3.46;83.64;93662.88;5010929;28;19980;-48
2023/02/20 01:01:50;;;;;;;;;;;;;;;3.24;84.25;93666.34;5010791;28;19928;-47
2023/02/20 01:04:15;;;;;;;;;;;;;;;3.41;83.81;93671.78;5011122;28;19929;-48
2023/02/20 01:06:41;;;;;;;;;;;;;;;3.54;83.22;93672.78;5010659;28;20016;-51
2023/02/20 01:09:06;;;;;;;;;;;;;;;3.53;82.41;93668.56;5010963;28;19988;-48
2023/02/20 01:11:31;;;;;;;;;;;;;;;3.54;82.43;93658.38;5010360;28;19913;-48
2023/02/20 01:13:56;;;;;;;;;;;;;;;3.26;82.88;93654.94;5010869;28;19918;-48
2023/02/20 01:16:22;;;;;;;;;;;;;;;2.94;83.60;93643.53;5010525;28;19913;-48
2023/02/20 01:18:50;;;;;;;;;;;;;;;3.06;84.95;93662.13;5010640;28;20376;-48
2023/02/20 01:21:15;;;;;;;;;;;;;;;3.02;84.16;93672.53;5010106;28;20049;-51
2023/02/20 01:23:41;;;;;;;;;;;;;;;3.24;83.22;93665.59;5010495;28;20009;-48
2023/02/20 01:26:06;;;;;;;;;;;;;;;3.00;83.19;93677.00;5012282;28;20389;-49
2023/02/20 01:28:31;;;;;;;;;;;;;;;3.00;83.86;93680.47;5030322;28;20072;-49
2023/02/20 01:30:56;;;;;;;;;;;;;;;3.23;83.26;93681.22;5027034;28;19917;-51
2023/02/20 01:33:22;;;;;;;;;;;;;;;3.01;83.54;93687.41;5019020;28;19916;-49
2023/02/20 01:35:47;;;;;;;;;;;;;;;2.91;84.40;93677.97;5026445;28;19921;-48
2023/02/20 01:38:12;;;;;;;;;;;;;;;3.06;84.02;93673.03;5010319;28;19972;-49
2023/02/20 01:40:37;;;;;;;;;;;;;;;2.99;83.89;93668.06;5010311;28;19945;-48
2023/02/20 01:43:03;;;;;;;;;;;;;;;2.77;84.68;93676.19;5010064;28;19921;-49
2023/02/20 01:45:33;;;;;;;;;;;;;;;2.70;86.76;93679.44;5010149;28;19914;-48
2023/02/20 01:47:58;;;;;;;;;;;;;;;3.01;87.40;93679.22;5009796;28;19975;-49
2023/02/20 01:50:24;;;;;;;;;;;;;;;2.85;87.13;93677.22;5010304;28;19921;-49
2023/02/20 01:52:50;;;;;;;;;;;;;;;2.97;87.69;93656.91;5008714;28;20020;-48
2023/02/20 01:55:21;;;;;;;;;;;;;;;2.97;87.18;93672.50;5009767;28;19920;-48
2023/02/20 01:57:50;;;;;;;;;;;;;;;2.99;87.43;93676.25;5010119;28;19917;-48
2023/02/20 02:00:18;;;;;;;;;;;;;;;2.91;87.19;93677.97;5028085;28;19917;-48
2023/02/20 02:02:49;;;;;;;;;;;;;;;3.37;87.76;93674.03;5028294;28;19921;-49
2023/02/20 02:05:14;;;;;;;;;;;;;;;3.52;87.36;93674.53;5028103;28;19917;-49
2023/02/20 02:07:39;;;;;;;;;;;;;;;3.63;86.23;93693.63;5028000;28;20003;-51
2023/02/20 02:10:08;;;;;;;;;;;;;;;3.89;85.59;93699.56;5029599;28;20409;-48
2023/02/20 02:12:34;;;;;;;;;;;;;;;4.07;84.45;93701.72;5029110;28;19956;-49
2023/02/20 02:14:59;;;;;;;;;;;;;;;4.31;83.35;93699.19;5021983;28;19964;-48
2023/02/20 02:17:41;;;;;;;;;;;;;;;4.36;83.08;93705.88;5008995;28;19976;-49
2023/02/20 02:20:09;;;;;;;;;;;;;;;4.21;82.86;93708.16;5007895;28;20032;-49
2023/02/20 02:22:50;;;;;;;;;;;;;;;4.05;82.57;93698.03;5009257;28;19992;-49
2023/02/20 02:25:31;;;;;;;;;;;;;;;4.11;83.74;93690.56;5008249;28;19965;-48
2023/02/20 02:28:08;;;;;;;;;;;;;;;4.21;84.01;93697.22;5021259;28;19976;-49
2023/02/20 02:30:52;;;;;;;;;;;;;;;4.25;83.84;93703.19;5007855;28;19913;-49
2023/02/20 02:33:23;;;;;;;;;;;;;;;4.11;82.49;93706.97;5008655;28;19924;-49
2023/02/20 02:36:00;;;;;;;;;;;;;;;3.96;83.85;93704.50;5008730;28;19940;-48
2023/02/20 02:38:32;;;;;;;;;;;;;;;4.15;84.09;93716.38;5008955;28;19921;-49
2023/02/20 02:41:00;;;;;;;;;;;;;;;4.38;83.62;93717.06;5008858;28;20375;-49
2023/02/20 02:43:29;;;;;;;;;;;;;;;4.35;83.66;93721.53;5009135;28;19925;-49
2023/02/20 02:45:55;;;;;;;;;;;;;;;4.45;83.91;93722.00;5009042;28;19945;-48
2023/02/20 02:48:39;;;;;;;;;;;;;;;4.75;82.77;93725.59;5008546;28;20405;-51
2023/02/20 02:51:07;;;;;;;;;;;;;;;4.87;81.27;93732.53;5008726;28;20480;-48
2023/02/20 02:53:32;;;;;;;;;;;;;;;4.84;81.14;93719.84;5008713;28;20001;-50
2023/02/20 02:56:20;;;;;;;;;;;;;;;4.73;82.07;93725.38;5008679;28;20023;-49
2023/02/20 02:58:43;;;;;;;;;;;;;;;4.86;81.40;93720.09;5008309;28;19914;-48
2023/02/20 03:01:08;;;;;;;;;;;;;;;4.85;82.26;93735.00;4990882;28;19924;-49
2023/02/20 03:03:33;;;;;;;;;;;;;;;4.62;81.72;93741.81;5008841;28;20368;-48
2023/02/20 03:06:03;;;;;;;;;;;;;;;4.45;81.72;93757.53;5008123;28;20382;-49
2023/02/20 03:08:31;;;;;;;;;;;;;;;4.56;81.44;93749.31;4991126;28;19917;-48
2023/02/20 03:11:06;;;;;;;;;;;;;;;4.63;81.51;93754.97;5008190;28;20484;-48
2023/02/20 03:16:20;;;;;;;;;;;;;;;4.40;82.63;93739.16;4987710;28;20321;-48
2023/02/20 03:18:45;;;;;;;;;;;;;;;4.19;83.35;93757.84;4970716;28;19918;-49
2023/02/20 03:21:12;;;;;;;;;;;;;;;4.23;83.75;93755.59;4970900;28;20416;-50
2023/02/20 03:23:39;;;;;;;;;;;;;;;4.30;83.29;93744.16;4988637;28;20597;-49
2023/02/20 03:26:05;;;;;;;;;;;;;;;4.17;84.39;93741.22;4971091;28;19917;-49
2023/02/20 03:28:31;;;;;;;;;;;;;;;4.46;85.57;93753.56;4976057;28;19928;-49
2023/02/20 03:31:03;;;;;;;;;;;;;;;4.08;84.19;93759.84;4989819;28;20433;-49
2023/02/20 03:44:41;;;;;;;;;;;;;;;4.85;84.92;93767.81;5008047;28;20008;-49
2023/02/20 03:47:06;;;;;;;;;;;;;;;5.01;84.34;93769.00;5006309;28;20016;-49
2023/02/20 03:49:36;;;;;;;;;;;;;;;4.99;83.83;93771.50;5007763;28;19918;-50
2023/02/20 03:52:01;;;;;;;;;;;;;;;5.04;83.86;93763.28;5006209;28;19925;-49
2023/02/20 03:54:27;;;;;;;;;;;;;;;4.97;84.62;93763.06;5006800;28;19917;-50
2023/02/20 03:56:53;;;;;;;;;;;;;;;4.90;84.88;93761.59;5006575;28;19951;-49
2023/02/20 03:59:20;;;;;;;;;;;;;;;4.98;84.84;93770.03;5006359;28;19914;-48
2023/02/20 04:01:45;;;;;;;;;;;;;;;5.12;84.61;93771.69;5006326;28;19968;-51
2023/02/20 04:04:12;;;;;;;;;;;;;;;4.99;85.46;93772.25;5006673;28;19968;-49
2023/02/20 04:06:37;;;;;;;;;;;;;;;5.12;84.93;93779.91;5007841;28;19948;-49
2023/02/20 04:09:06;;;;;;;;;;;;;;;4.99;85.56;93794.16;5006253;28;20441;-50
2023/02/20 04:11:38;;;;;;;;;;;;;;;4.95;86.16;93781.97;5007791;28;19925;-48
2023/02/20 04:14:03;;;;;;;;;;;;;;;4.97;86.17;93780.22;5007501;28;19914;-49
2023/02/20 04:16:28;;;;;;;;;;;;;;;5.01;85.87;93769.00;5006479;28;19921;-49
2023/02/20 04:18:54;;;;;;;;;;;;;;;4.82;86.70;93762.63;5007328;28;19925;-50
2023/02/20 04:21:31;;;;;;;;;;;;;;;4.81;87.14;93772.09;5006341;28;19920;-49
2023/02/20 04:24:06;;;;;;;;;;;;;;;4.84;86.95;93779.28;5005986;28;19928;-50
2023/02/20 04:26:31;;;;;;;;;;;;;;;4.73;86.89;93782.81;5009297;28;19940;-49
2023/02/20 04:28:57;;;;;;;;;;;;;;;4.69;87.81;93789.78;5009856;28;20313;-50
2023/02/20 04:31:22;;;;;;;;;;;;;;;4.69;88.14;93779.59;5015974;28;19970;-48
2023/02/20 04:33:47;;;;;;;;;;;;;;;4.68;88.87;93785.56;5019071;28;19924;-50
2023/02/20 04:36:13;;;;;;;;;;;;;;;4.66;88.49;93782.59;5011036;28;19956;-50
2023/02/20 04:38:38;;;;;;;;;;;;;;;4.80;87.73;93782.28;5011392;28;19925;-48
2023/02/20 04:41:03;;;;;;;;;;;;;;;4.67;88.03;93793.03;5011065;28;20424;-48
2023/02/20 04:43:29;;;;;;;;;;;;;;;4.69;88.23;93801.47;5011094;28;19925;-48
2023/02/20 04:45:54;;;;;;;;;;;;;;;4.73;88.29;93793.00;5011073;28;19928;-51
2023/02/20 04:48:19;;;;;;;;;;;;;;;4.80;87.77;93806.91;5011259;28;19923;-48
2023/02/20 04:50:45;;;;;;;;;;;;;;;4.68;88.41;93807.44;5011261;28;19920;-50
2023/02/20 04:53:10;;;;;;;;;;;;;;;4.65;88.65;93814.66;5010857;28;19921;-49
2023/02/20 04:55:35;;;;;;;;;;;;;;;4.66;88.42;93812.69;5011076;28;19927;-48
2023/02/20 04:58:00;;;;;;;;;;;;;;;4.70;88.08;93826.84;5010774;28;20492;-49
2023/02/20 05:00:26;;;;;;;;;;;;;;;4.63;88.74;93838.28;5010596;28;19972;-49
2023/02/20 05:02:51;;;;;;;;;;;;;;;4.66;88.98;93835.28;5010439;28;19921;-51
2023/02/20 05:05:21;;;;;;;;;;;;;;;4.80;88.26;93839.75;5009843;28;19971;-50
2023/02/20 05:07:46;;;;;;;;;;;;;;;4.68;88.74;93837.53;5010503;28;20491;-49
2023/02/20 05:10:15;;;;;;;;;;;;;;;4.74;88.37;93839.00;5010992;28;19917;-48
2023/02/20 05:12:41;;;;;;;;;;;;;;;4.61;89.11;93842.25;5010703;28;19925;-50
2023/02/20 05:15:06;;;;;;;;;;;;;;;4.69;89.04;93845.22;5018819;28;20699;-49
2023/02/20 05:17:31;;;;;;;;;;;;;;;4.64;88.99;93837.78;5030506;28;19988;-52
2023/02/20 05:19:57;;;;;;;;;;;;;;;4.58;89.52;93831.59;5030372;28;19921;-49
2023/02/20 05:22:22;;;;;;;;;;;;;;;4.65;89.21;93833.06;5030447;28;20016;-50
2023/02/20 05:24:48;;;;;;;;;;;;;;;4.66;88.78;93837.28;5024518;28;20636;-49
2023/02/20 05:27:14;;;;;;;;;;;;;;;4.69;88.52;93831.56;5010599;28;19913;-49
2023/02/20 05:29:52;;;;;;;;;;;;;;;4.74;88.59;93849.19;5010248;28;19924;-49
2023/02/20 05:32:17;;;;;;;;;;;;;;;4.67;89.04;93844.25;5015143;28;19960;-49
2023/02/20 05:34:43;;;;;;;;;;;;;;;4.63;88.70;93855.44;5010050;28;20026;-48
2023/02/20 05:37:09;;;;;;;;;;;;;;;4.65;89.06;93852.19;5009987;28;19928;-50
2023/02/20 05:39:34;;;;;;;;;;;;;;;4.83;88.11;93846.91;5009844;28;19983;-48
2023/02/20 05:41:59;;;;;;;;;;;;;;;4.76;87.79;93866.59;5024574;28;19921;-49
2023/02/20 05:44:25;;;;;;;;;;;;;;;4.70;88.77;93876.78;5029639;28;19913;-50
2023/02/20 05:46:50;;;;;;;;;;;;;;;4.84;88.23;93870.31;5029851;28;19964;-49
2023/02/20 05:49:15;;;;;;;;;;;;;;;4.83;87.87;93868.09;5029778;28;19944;-51
2023/02/20 05:51:41;;;;;;;;;;;;;;;5.05;87.15;93865.25;5029696;28;20714;-51
2023/02/20 05:54:06;;;;;;;;;;;;;;;4.92;86.88;93862.31;5029345;28;20015;-51
2023/02/20 05:56:31;;;;;;;;;;;;;;;4.99;87.00;93872.75;5029758;28;19917;-50
2023/02/20 05:58:57;;;;;;;;;;;;;;;5.05;86.82;93871.47;5019224;28;20043;-49
2023/02/20 06:01:26;;;;;;;;;;;;;;;5.25;85.16;93875.91;5009504;28;19917;-50
2023/02/20 06:03:51;;;;;;;;;;;;;;;5.25;84.57;93870.41;5009508;28;19917;-50
2023/02/20 06:06:17;;;;;;;;;;;;;;;5.11;85.26;93876.94;5009782;28;19918;-49
2023/02/20 06:08:42;;;;;;;;;;;;;;;5.33;84.37;93883.06;5009432;28;19968;-50
2023/02/20 06:11:08;;;;;;;;;;;;;;;5.21;84.33;93878.16;5009147;28;19964;-49
2023/02/20 06:13:33;;;;;;;;;;;;;;;5.27;83.33;93878.88;5009682;28;19920;-50
2023/02/20 06:15:58;;;;;;;;;;;;;;;5.26;83.39;93889.06;5009559;28;19948;-52
2023/02/20 06:18:24;;;;;;;;;;;;;;;5.39;82.11;93883.06;5009138;28;19936;-50
2023/02/20 06:20:49;;;;;;;;;;;;;;;5.25;82.36;93893.06;5009367;28;19917;-49
2023/02/20 06:23:14;;;;;;;;;;;;;;;5.38;81.21;93889.78;5009212;28;19965;-50
2023/02/20 06:25:39;;;;;;;;;;;;;;;5.29;81.10;93898.28;5009246;28;20013;-49
2023/02/20 06:28:05;;;;;;;;;;;;;;;5.31;80.65;93893.03;5009188;28;19917;-50
2023/02/20 06:30:30;;;;;;;;;;;;;;;5.42;79.16;93894.97;5009113;28;19968;-50
2023/02/20 06:32:55;;;;;;;;;;;;;;;5.26;79.90;93893.81;5014071;28;20026;-49
2023/02/20 06:35:20;;;;;;;;;;;;;;;5.16;79.67;93909.00;5028595;28;19921;-49
2023/02/20 06:37:46;;;;;;;;;;;;;;;5.30;79.60;93905.25;5028532;28;20670;-50
2023/02/20 06:40:11;;;;;;;;;;;;;;;5.41;77.81;93916.16;5027540;28;19917;-52
2023/02/20 06:42:36;;;;;;;;;;;;;;;5.39;77.81;93907.72;5009051;28;20462;-49
2023/02/20 06:45:02;;;;;;;;;;;;;;;5.51;76.52;93911.88;5008818;28;20534;-51
2023/02/20 06:47:27;;;;;;;;;;;;;;;5.45;77.05;93886.50;5008339;28;19917;-49
2023/02/20 06:49:52;;;;;;;;;;;;;;;5.61;76.45;93893.91;5007330;28;19924;-48
2023/02/20 06:52:17;;;;;;;;;;;;;;;6.26;73.68;93882.31;5008832;28;19917;-51
2023/02/20 06:54:43;;;;;;;;;;;;;;;6.24;73.10;93893.78;5008869;28;20306;-50
2023/02/20 06:57:09;;;;;;;;;;;;;;;6.93;70.37;93894.16;5008915;28;19975;-50
2023/02/20 06:59:40;;;;;;;;;;;;;;;7.82;67.01;93898.66;5023857;28;19935;-51
2023/02/20 07:02:05;;;;;;;;;;;;;;;8.73;63.91;93901.81;5028517;28;19967;-49
2023/02/20 07:04:30;;;;;;;;;;;;;;;9.37;61.56;93907.19;5028156;28;20333;-50
2023/02/20 07:06:56;;;;;;;;;;;;;;;9.27;60.51;93915.13;5028635;28;19944;-49
2023/02/20 07:09:21;;;;;;;;;;;;;;;9.90;59.58;93914.16;5028361;28;19913;-51
2023/02/20 07:11:49;;;;;;;;;;;;;;;9.99;56.67;93915.72;5026785;28;20014;-49
2023/02/20 07:14:14;;;;;;;;;;;;;;;10.44;55.96;93921.78;5027028;28;19917;-51
2023/02/20 07:16:39;;;;;;;;;;;;;;;10.15;56.22;93918.16;5008732;28;20468;-49
2023/02/20 07:19:05;;;;;;;;;;;;;;;10.27;57.89;93932.44;5008482;28;19913;-53
2023/02/20 07:21:30;;;;;;;;;;;;;;;11.37;52.70;93929.78;5017387;28;19925;-49
2023/02/20 07:23:55;;;;;;;;;;;;;;;11.85;51.70;93933.78;5028241;28;19947;-48
2023/02/20 07:26:24;;;;;;;;;;;;;;;12.14;50.57;93929.69;5023932;28;20000;-49
2023/02/20 07:28:50;;;;;;;;;;;;;;;11.87;51.91;93934.00;5008622;28;19914;-51
2023/02/20 07:31:15;;;;;;;;;;;;;;;12.57;49.74;93925.41;5012780;28;20371;-50
2023/02/20 07:33:44;;;;;;;;;;;;;;;12.91;49.40;93940.44;5016110;28;20385;-52
2023/02/20 07:36:09;;;;;;;;;;;;;;;14.20;45.18;93940.34;5008016;28;20511;-50
2023/02/20 07:38:35;;;;;;;;;;;;;;;14.76;44.25;93934.19;5008072;28;19939;-50
2023/02/20 07:41:00;;;;;;;;;;;;;;;16.24;41.16;93936.84;5016046;28;19913;-52
2023/02/20 07:43:25;;;;;;;;;;;;;;;16.13;39.74;93923.44;5027793;28;20373;-50
2023/02/20 07:45:51;;;;;;;;;;;;;;;15.37;40.50;93915.03;5027480;28;20320;-50
2023/02/20 07:48:16;;;;;;;;;;;;;;;14.90;41.69;93926.31;5027856;28;19970;-49
2023/02/20 07:50:41;;;;;;;;;;;;;;;15.63;39.96;93930.41;5027808;28;20585;-50
2023/02/20 07:53:07;;;;;;;;;;;;;;;15.62;39.59;93918.53;5027250;28;19917;-53
2023/02/20 07:55:32;;;;;;;;;;;;;;;15.40;40.31;93924.28;5027497;28;20008;-49
2023/02/20 07:57:57;;;;;;;;;;;;;;;15.12;40.55;93926.16;5025160;28;19955;-50
2023/02/20 08:00:23;;;;;;;;;;;;;;;15.08;40.52;93920.25;5007288;28;19918;-50
2023/02/20 08:02:48;;;;;;;;;;;;;;;15.64;39.46;93931.88;5007533;28;20020;-51
2023/02/20 08:05:14;;;;;;;;;;;;;;;14.86;40.01;93917.63;5007669;28;19921;-51
2023/02/20 08:07:43;;;;;;;;;;;;;;;15.49;39.68;93921.63;5007721;28;19949;-50
2023/02/20 08:10:08;;;;;;;;;;;;;;;15.40;39.14;93924.28;5007722;28;19922;-53
2023/02/20 08:12:33;;;;;;;;;;;;;;;16.59;37.29;93918.78;5007336;28;19968;-49
2023/02/20 08:14:59;;;;;;;;;;;;;;;16.52;36.59;93925.19;5007819;28;19971;-50
2023/02/20 08:17:24;;;;;;;;;;;;;;;16.66;35.80;93912.38;5013530;28;19917;-49
2023/02/20 08:19:49;;;;;;;;;;;;;;;16.49;36.83;93920.03;5027304;28;19929;-52
2023/02/20 08:22:14;;;;;;;;;;;;;;;16.59;35.94;93918.78;5026990;28;19925;-50
2023/02/20 08:24:40;;;;;;;;;;;;;;;16.48;35.93;93927.63;5027410;28;19932;-51
2023/02/20 08:27:05;;;;;;;;;;;;;;;17.84;33.99;93919.34;5017419;28;20460;-52
2023/02/20 08:29:30;;;;;;;;;;;;;;;18.03;32.53;93914.53;5007340;28;19955;-49
2023/02/20 08:31:56;;;;;;;;;;;;;;;17.23;33.81;93922.38;5006977;28;20025;-51
2023/02/20 08:34:21;;;;;;;;;;;;;;;18.51;31.82;93917.38;5023705;28;20479;-50
2023/02/20 08:48:57;;;;;;;;;;;;;;;19.13;29.24;93900.72;5011355;28;20592;-51
2023/02/20 08:51:24;;;;;;;;;;;;;;;18.80;29.03;93920.09;5011328;28;19921;-51
2023/02/20 08:53:49;;;;;;;;;;;;;;;18.66;29.58;93905.88;5019968;28;19917;-50
2023/02/20 08:56:16;;;;;;;;;;;;;;;19.62;27.95;93899.97;5016103;28;19920;-50
2023/02/20 08:58:42;;;;;;;;;;;;;;;18.60;29.44;93899.81;5016316;28;19972;-51
2023/02/20 09:01:07;;;;;;;;;;;;;;;19.93;27.82;93906.25;5007527;28;20013;-50
2023/02/20 09:03:33;;;;;;;;;;;;;;;20.89;26.14;93897.81;5021814;28;20421;-51
2023/02/20 09:05:58;;;;;;;;;;;;;;;20.13;26.58;93904.81;5011878;28;20678;-52
2023/02/20 09:08:24;;;;;;;;;;;;;;;20.31;26.21;93908.81;5010280;28;19917;-50
2023/02/20 09:10:49;;;;;;;;;;;;;;;20.34;27.14;93899.22;5011946;28;19917;-50
2023/02/20 09:13:14;;;;;;;;;;;;;;;20.70;25.81;93884.00;5014812;28;19975;-51
2023/02/20 09:15:40;;;;;;;;;;;;;;;21.25;25.32;93895.81;5014661;28;19917;-51
2023/02/20 09:18:10;;;;;;;;;;;;;;;20.02;25.68;93897.06;5018613;28;19924;-50
2023/02/20 09:20:36;;;;;;;;;;;;;;;20.90;25.33;93904.91;5016947;28;19921;-50
2023/02/20 09:23:01;;;;;;;;;;;;;;;21.66;24.83;93903.31;5020462;28;20416;-50
2023/02/20 09:25:27;;;;;;;;;;;;;;;21.10;24.31;93903.38;5021564;28;19917;-49
2023/02/20 09:27:52;;;;;;;;;;;;;;;21.41;23.93;93905.25;5020396;28;20008;-49
2023/02/20 09:30:18;;;;;;;;;;;;;;;21.13;24.47;93923.91;5026846;28;19933;-50
2023/02/20 09:32:45;;;;;;;;;;;;;;;20.75;24.24;93913.75;5019443;28;19917;-52
2023/02/20 09:35:13;;;;;;;;;;;;;;;22.38;23.73;93903.34;5019195;28;19925;-52
2023/02/20 09:37:39;;;;;;;;;;;;;;;21.01;23.53;93911.88;5022753;28;20746;-49
2023/02/20 09:40:04;;;;;;;;;;;;;;;20.34;24.79;93921.63;5024791;28;20000;-49
2023/02/20 09:42:42;;;;;;;;;;;;;;;21.12;23.46;93902.78;5024207;28;19960;-49
2023/02/20 09:45:07;;;;;;;;;;;;;;;21.53;23.66;93909.53;5018075;28;19917;-49
2023/02/20 09:47:45;;;;;;;;;;;;;;;21.27;23.70;93902.31;5016013;28;19959;-49
2023/02/20 09:50:14;;;;;;;;;;;;;;;20.81;24.30;93893.78;5018958;28;19918;-49
2023/02/20 09:52:41;;;;;;;;;;;;;;;20.79;23.40;93902.78;5017646;28;20302;-51
2023/02/20 09:55:09;;;;;;;;;;;;;;;20.90;23.12;93901.34;5014241;28;19925;-52
2023/02/20 09:57:35;;;;;;;;;;;;;;;21.60;22.84;93880.47;5019139;28;19924;-50
2023/02/20 10:00:05;;;;;;;;;;;;;;;21.14;22.86;93888.84;5016552;28;19913;-49
2023/02/20 10:02:38;;;;;;;;;;;;;;;21.58;22.01;93885.97;5012772;28;20477;-50
2023/02/20 10:05:10;;;;;;;;;;;;;;;21.43;22.99;93886.44;5009802;28;19929;-51
2023/02/20 10:07:36;;;;;;;;;;;;;;;22.82;21.66;93882.63;5018799;28;19979;-49
2023/02/20 10:10:18;;;;;;;;;;;;;;;22.56;20.58;93873.44;5011924;28;21638;-49
2023/02/20 10:12:46;;;;;;;;;;;;;;;21.35;21.99;93882.41;5018060;28;20396;-52
2023/02/20 10:15:12;;;;;;;;;;;;;;;22.69;20.51;93874.88;5011417;28;19943;-52
2023/02/20 10:17:57;;;;;;;;;;;;;;;22.36;20.39;93870.19;5010908;28;19928;-49
2023/02/20 10:20:30;;;;;;;;;;;;;;;22.24;20.80;93868.78;5010656;28;20393;-50
2023/02/20 10:22:57;;;;;;;;;;;;;;;21.17;22.50;93889.72;5019442;28;19975;-50
2023/02/20 10:25:24;;;;;;;;;;;;;;;21.82;23.30;93883.88;5005217;28;20731;-49
2023/02/20 10:27:54;;;;;;;;;;;;;;;21.84;22.22;93884.00;5013986;28;19916;-49
2023/02/20 10:30:30;;;;;;;;;;;;;;;21.96;21.41;93884.00;5024572;28;20457;-51
2023/02/20 10:33:03;;;;;;;;;;;;;;;21.85;21.40;93889.00;5024609;28;20364;-52
2023/02/20 10:35:36;;;;;;;;;;;;;;;22.31;21.26;93879.75;4992865;28;20314;-50
2023/02/20 10:38:06;;;;;;;;;;;;;;;23.35;20.03;93881.34;5007115;28;20036;-49
2023/02/20 10:40:32;;;;;;;;;;;;;;;22.86;19.36;93866.69;5021833;28;19917;-50
2023/02/20 10:43:00;;;;;;;;;;;;;;;23.21;19.75;93855.94;5025442;28;20323;-49
2023/02/20 10:45:27;;;;;;;;;;;;;;;21.60;21.07;93860.78;5006789;28;19918;-52
2023/02/20 10:48:08;;;;;;;;;;;;;;;21.37;22.52;93860.06;5005693;28;19924;-49
2023/02/20 10:50:35;;;;;;;;;;;;;;;21.94;21.49;93859.28;5018837;28;19922;-52
2023/02/20 11:11:30;;;;;;;;;;;;;;;21.02;23.40;93860.75;5013320;28;20000;-50
2023/02/20 11:13:59;;;;;;;;;;;;;;;21.32;22.14;93866.78;5020545;28;19918;-49
2023/02/20 11:16:42;;;;;;;;;;;;;;;20.27;20.16;93869.28;5014136;28;19917;-50
2023/02/20 11:19:09;;;;;;;;;;;;;;;21.08;17.27;93857.59;5019248;28;20028;-50
2023/02/20 11:21:39;;;;;;;;;;;;;;;21.10;16.67;93868.94;5004909;28;19917;-50
2023/02/20 11:24:18;;;;;;;;;;;;;;;19.67;15.97;93870.88;5024398;28;19994;-49
2023/02/20 11:26:43;;;;;;;;;;;;;;;19.16;17.49;93863.16;5020532;28;20012;-48
2023/02/20 11:29:08;;;;;;;;;;;;;;;19.62;15.85;93878.28;5014925;28;20079;-48
2023/02/20 11:31:34;;;;;;;;;;;;;;;19.24;15.96;93891.69;5012002;28;19917;-48
2023/02/20 11:33:59;;;;;;;;;;;;;;;18.79;16.84;93885.81;5012622;28;20043;-49
2023/02/20 11:36:26;;;;;;;;;;;;;;;18.70;17.21;93883.03;5011162;28;20011;-50
2023/02/20 11:38:59;;;;;;;;;;;;;;;18.13;17.13;93870.56;5009898;28;19928;-50
2023/02/20 11:41:25;;;;;;;;;;;;;;;17.49;18.66;93876.19;5017995;28;19974;-50
2023/02/20 11:44:12;;;;;;;;;;;;;;;17.66;17.02;93871.25;5021147;28;19921;-50
2023/02/20 11:46:37;;;;;;;;;;;;;;;17.70;18.24;93868.75;4997502;28;20032;-49
2023/02/20 11:49:06;;;;;;;;;;;;;;;17.27;18.47;93866.88;5012101;28;19940;-52
2023/02/20 11:51:42;;;;;;;;;;;;;;;17.38;20.17;93881.00;5015139;28;19957;-50
2023/02/20 11:54:24;;;;;;;;;;;;;;;17.16;18.38;93875.78;5015713;28;20389;-49
2023/02/20 11:57:00;;;;;;;;;;;;;;;16.73;18.63;93877.34;5017755;28;19924;-49
2023/02/20 11:59:27;;;;;;;;;;;;;;;17.12;18.28;93862.28;5012058;28;19921;-50
2023/02/20 12:01:52;;;;;;;;;;;;;;;17.63;17.97;93866.81;5009689;28;19929;-50
2023/02/20 12:04:21;;;;;;;;;;;;;;;17.10;16.50;93859.31;5007375;28;20320;-49
2023/02/20 12:06:47;;;;;;;;;;;;;;;16.82;17.93;93859.19;5014845;28;19921;-50
2023/02/20 12:09:14;;;;;;;;;;;;;;;17.02;19.44;93849.59;5020753;28;19999;-48
2023/02/20 12:11:39;;;;;;;;;;;;;;;15.74;18.63;93863.13;5019706;28;19929;-49
2023/02/20 12:14:05;;;;;;;;;;;;;;;15.90;19.13;93859.59;5019643;28;19979;-48
2023/02/20 12:16:31;;;;;;;;;;;;;;;16.18;18.42;93863.16;5013603;28;19921;-50
2023/02/20 12:19:16;;;;;;;;;;;;;;;16.10;18.75;93866.06;5020174;28;19931;-49
2023/02/20 12:21:51;;;;;;;;;;;;;;;16.16;19.59;93858.19;5012202;28;20397;-50
2023/02/20 12:24:35;;;;;;;;;;;;;;;16.06;19.87;93862.22;5022168;28;20032;-49
2023/02/20 12:27:02;;;;;;;;;;;;;;;15.43;19.46;93857.13;5006997;28;19984;-51
2023/02/20 12:29:32;;;;;;;;;;;;;;;15.54;20.49;93869.81;5012370;28;19917;-50
2023/02/20 12:32:10;;;;;;;;;;;;;;;15.57;19.60;93882.59;5018539;28;19918;-49
2023/02/20 12:34:35;;;;;;;;;;;;;;;15.27;18.84;93872.44;5014980;28;19932;-49
2023/02/20 12:37:30;;;;;;;;;;;;;;;14.90;19.99;93871.44;5006441;28;19918;-49
2023/02/20 12:39:58;;;;;;;;;;;;;;;15.05;18.72;93871.31;4965081;28;20590;-50
2023/02/20 12:45:28;;;;;;;;;;;;;;;15.48;19.64;93858.94;5008124;28;19944;-49
2023/02/20 12:48:03;;;;;;;;;;;;;;;15.44;20.10;93863.44;5018264;28;19921;-50
2023/02/20 12:50:44;;;;;;;;;;;;;;;15.35;19.23;93858.47;5015103;28;19917;-49
2023/02/20 12:53:17;;;;;;;;;;;;;;;15.42;19.20;93855.63;5015476;28;19914;-50
2023/02/20 12:55:48;;;;;;;;;;;;;;;15.05;19.25;93868.53;5016506;28;19925;-49
2023/02/20 12:58:16;;;;;;;;;;;;;;;14.74;19.06;93867.31;5018478;28;19921;-50
2023/02/20 13:00:52;;;;;;;;;;;;;;;14.38;20.26;93859.34;5017961;28;19921;-48
2023/02/20 13:03:26;;;;;;;;;;;;;;;14.28;20.11;93860.50;5010926;28;19921;-49
2023/02/20 13:05:52;;;;;;;;;;;;;;;14.19;19.04;93861.84;5016546;28;19917;-49
2023/02/20 13:08:20;;;;;;;;;;;;;;;14.19;19.30;93861.84;5010617;28;19920;-48
2023/02/20 13:10:48;;;;;;;;;;;;;;;14.10;19.77;93878.34;5018659;28;19924;-50
2023/02/20 13:13:15;;;;;;;;;;;;;;;14.19;21.16;93872.19;5018273;28;19917;-51
2023/02/20 13:15:53;;;;;;;;;;;;;;;14.03;21.06;93874.31;5014954;28;19921;-49
2023/02/20 13:18:21;;;;;;;;;;;;;;;14.18;21.45;93879.81;5015589;28;19913;-48
2023/02/20 13:20:48;;;;;;;;;;;;;;;14.03;21.26;93882.66;5014744;28;19928;-49
2023/02/20 13:23:14;;;;;;;;;;;;;;;13.83;21.45;93886.41;5022358;28;20003;-49
2023/02/20 13:25:41;;;;;;;;;;;;;;;13.78;20.76;93881.03;5025238;28;19967;-48
2023/02/20 13:28:06;;;;;;;;;;;;;;;13.61;19.75;93887.94;5021369;28;19921;-49
2023/02/20 13:30:33;;;;;;;;;;;;;;;13.91;22.58;93895.44;5011863;28;19940;-48
2023/02/20 13:33:11;;;;;;;;;;;;;;;13.67;22.78;93890.50;5013726;28;19968;-48
2023/02/20 13:35:39;;;;;;;;;;;;;;;13.36;22.40;93892.59;5016033;28;19968;-48
2023/02/20 13:38:23;;;;;;;;;;;;;;;13.12;23.72;93898.72;5016550;28;19921;-50
2023/02/20 13:40:55;;;;;;;;;;;;;;;13.39;26.46;93896.28;5016492;28;19918;-49
2023/02/20 13:43:26;;;;;;;;;;;;;;;13.43;26.38;93897.41;5015458;28;19972;-49